createdAt,value
2022-08-17T00:03:10.248Z,15.57
2022-08-17T00:06:17.245Z,15.52
2022-08-17T00:09:18.219Z,15.59
2022-08-17T00:12:41.714Z,15.48
2022-08-17T00:15:33.922Z,15.46
2022-08-17T00:19:05.818Z,15.50
2022-08-17T00:22:29.787Z,15.58
2022-08-17T00:25:16.781Z,15.40
2022-08-17T00:28:16.161Z,15.54
2022-08-17T00:31:13.866Z,15.31
2022-08-17T00:34:10.772Z,15.26
2022-08-17T00:37:07.632Z,15.32
2022-08-17T00:40:05.858Z,15.30
2022-08-17T00:43:47.355Z,15.45
2022-08-17T00:46:45.487Z,15.44
2022-08-17T00:49:42.374Z,15.24
2022-08-17T00:52:52.541Z,15.36
2022-08-17T00:55:49.525Z,15.45
2022-08-17T00:58:47.228Z,15.45
2022-08-17T01:01:44.806Z,15.15
2022-08-17T01:04:46.564Z,15.10
2022-08-17T01:07:44.567Z,14.99
2022-08-17T01:10:59.735Z,15.17
2022-08-17T01:13:58.423Z,15.00
2022-08-17T01:16:56.298Z,14.93
2022-08-17T01:19:53.229Z,15.12
2022-08-17T01:22:50.215Z,14.94
2022-08-17T01:25:51.367Z,14.87
2022-08-17T01:28:54.974Z,14.92
2022-08-17T01:32:00.066Z,14.73
2022-08-17T01:34:57.417Z,14.86
2022-08-17T01:37:54.279Z,14.97
2022-08-17T01:40:57.973Z,14.88
2022-08-17T01:44:00.953Z,15.00
2022-08-17T01:46:58.156Z,14.88
2022-08-17T01:49:57.902Z,14.78
2022-08-17T01:53:00.687Z,15.09
2022-08-17T01:56:05.412Z,15.01
2022-08-17T01:59:02.913Z,14.90
2022-08-17T02:02:00.441Z,14.75
2022-08-17T02:04:57.283Z,14.59
2022-08-17T02:08:00.232Z,14.61
2022-08-17T02:10:58.074Z,14.88
2022-08-17T02:13:58.315Z,14.68
2022-08-17T02:16:59.884Z,14.60
2022-08-17T02:19:56.945Z,14.49
2022-08-17T02:22:53.834Z,14.56
2022-08-17T02:25:50.894Z,14.35
2022-08-17T02:28:47.740Z,14.37
2022-08-17T02:31:44.770Z,14.42
2022-08-17T02:34:41.591Z,14.46
2022-08-17T02:37:38.844Z,14.38
2022-08-17T02:40:37.245Z,14.50
2022-08-17T02:43:34.914Z,14.52
2022-08-17T02:46:32.426Z,14.44
2022-08-17T02:49:29.241Z,14.48
2022-08-17T02:52:42.979Z,14.54
2022-08-17T02:55:43.507Z,14.37
2022-08-17T02:58:40.412Z,14.44
2022-08-17T03:01:37.323Z,14.31
2022-08-17T03:04:35.498Z,14.37
2022-08-17T03:07:32.428Z,14.50
2022-08-17T03:10:29.816Z,14.42
2022-08-17T03:13:27.210Z,14.32
2022-08-17T03:16:24.048Z,14.35
2022-08-17T03:19:20.870Z,14.24
2022-08-17T03:22:34.702Z,14.30
2022-08-17T03:25:38.745Z,14.25
2022-08-17T03:28:35.620Z,14.37
2022-08-17T03:31:32.473Z,14.33
2022-08-17T03:34:30.218Z,14.39
2022-08-17T03:37:27.181Z,14.30
2022-08-17T03:40:55.622Z,14.00
2022-08-17T03:43:41.330Z,14.05
2022-08-17T03:46:56.784Z,14.27
2022-08-17T03:50:28.587Z,14.21
2022-08-17T03:53:44.054Z,13.88
2022-08-17T03:56:42.291Z,14.06
2022-08-17T03:59:41.195Z,14.26
2022-08-17T04:02:38.052Z,14.03
2022-08-17T04:05:34.883Z,14.20
2022-08-17T04:08:32.049Z,14.12
2022-08-17T04:11:28.929Z,14.21
2022-08-17T04:14:25.740Z,14.06
2022-08-17T04:17:26.712Z,14.21
2022-08-17T04:20:25.163Z,14.24
2022-08-17T04:23:21.999Z,13.98
2022-08-17T04:26:52.810Z,14.18
2022-08-17T04:29:44.669Z,14.04
2022-08-17T04:33:08.587Z,14.35
2022-08-17T04:36:07.849Z,14.12
2022-08-17T04:39:05.209Z,14.10
2022-08-17T04:42:07.934Z,14.48
2022-08-17T04:45:05.513Z,14.16
2022-08-17T04:48:02.584Z,14.15
2022-08-17T04:51:00.087Z,14.23
2022-08-17T04:54:02.081Z,14.52
2022-08-17T04:56:58.987Z,14.70
2022-08-17T04:59:55.829Z,14.59
2022-08-17T05:02:55.327Z,14.63
2022-08-17T05:05:52.506Z,14.84
2022-08-17T05:08:49.624Z,14.63
2022-08-17T05:11:47.273Z,14.67
2022-08-17T05:14:44.075Z,14.77
2022-08-17T05:17:40.925Z,14.90
2022-08-17T05:20:39.665Z,15.15
2022-08-17T05:23:42.696Z,14.99
2022-08-17T05:26:40.006Z,15.18
2022-08-17T05:29:39.312Z,15.15
2022-08-17T05:32:38.322Z,15.39
2022-08-17T05:35:42.592Z,15.32
2022-08-17T05:38:39.769Z,15.40
2022-08-17T05:41:36.648Z,15.57
2022-08-17T05:44:33.480Z,15.57
2022-08-17T05:47:31.284Z,15.40
2022-08-17T05:50:42.372Z,15.65
2022-08-17T05:54:06.983Z,15.61
2022-08-17T05:57:21.426Z,15.84
2022-08-17T06:00:21.895Z,15.75
2022-08-17T06:03:39.194Z,16.00
2022-08-17T06:07:15.962Z,16.13
2022-08-17T06:10:40.506Z,16.10
2022-08-17T06:14:20.523Z,16.16
2022-08-17T06:17:23.838Z,16.07
2022-08-17T06:20:20.967Z,16.28
2022-08-17T06:23:44.940Z,16.40
2022-08-17T06:26:45.374Z,16.52
2022-08-17T06:29:50.643Z,16.75
2022-08-17T06:32:51.109Z,16.67
2022-08-17T06:36:41.592Z,16.77
2022-08-17T06:40:20.454Z,16.86
2022-08-17T06:43:43.998Z,16.91
2022-08-17T06:47:00.142Z,17.07
2022-08-17T06:50:17.495Z,17.23
2022-08-17T06:53:35.432Z,17.35
2022-08-17T06:56:55.705Z,17.52
2022-08-17T07:00:14.448Z,17.74
2022-08-17T07:03:41.111Z,17.92
2022-08-17T07:06:49.537Z,18.08
2022-08-17T07:09:46.441Z,18.22
2022-08-17T07:12:45.661Z,18.40
2022-08-17T07:15:44.748Z,18.53
2022-08-17T07:18:43.724Z,18.68
2022-08-17T07:22:04.525Z,18.87
2022-08-17T07:25:07.005Z,19.02
2022-08-17T07:28:07.232Z,19.09
2022-08-17T07:31:04.761Z,19.33
2022-08-17T07:34:08.345Z,19.53
2022-08-17T07:37:05.551Z,19.67
2022-08-17T07:40:19.408Z,19.79
2022-08-17T07:43:26.100Z,20.00
2022-08-17T07:46:52.720Z,20.22
2022-08-17T07:49:50.550Z,20.47
2022-08-17T07:52:52.264Z,20.80
2022-08-17T07:55:51.681Z,21.24
2022-08-17T07:58:49.122Z,21.25
2022-08-17T08:01:57.733Z,21.64
2022-08-17T08:05:49.416Z,22.05
2022-08-17T08:08:50.418Z,22.18
2022-08-17T08:11:47.343Z,22.65
2022-08-17T08:14:56.245Z,22.81
2022-08-17T08:18:04.781Z,23.09
2022-08-17T08:21:18.337Z,23.23
2022-08-17T08:24:30.822Z,23.59
2022-08-17T08:27:41.801Z,23.82
2022-08-17T08:30:49.799Z,24.46
2022-08-17T08:35:00.688Z,24.57
2022-08-17T08:38:07.565Z,24.63
2022-08-17T08:41:54.613Z,25.25
2022-08-17T08:45:19.871Z,24.93
2022-08-17T08:49:11.849Z,24.71
2022-08-17T08:52:49.166Z,25.13
2022-08-17T08:55:54.986Z,25.06
2022-08-17T08:59:35.190Z,25.10
2022-08-17T09:03:04.604Z,25.76
2022-08-17T09:06:39.017Z,25.78
2022-08-17T09:10:06.461Z,26.30
2022-08-17T09:13:54.209Z,26.41
2022-08-17T09:17:02.193Z,25.59
2022-08-17T09:20:27.898Z,26.29
2022-08-17T09:23:44.843Z,26.99
2022-08-17T09:26:54.836Z,26.84
2022-08-17T09:30:08.438Z,27.28
2022-08-17T09:33:09.373Z,26.88
2022-08-17T09:36:18.672Z,26.86
2022-08-17T09:39:36.539Z,27.43
2022-08-17T09:42:45.208Z,27.67
2022-08-17T09:45:51.934Z,27.54
2022-08-17T09:49:02.517Z,28.26
2022-08-17T09:52:09.818Z,28.40
2022-08-17T09:55:07.187Z,28.02
2022-08-17T09:58:48.826Z,28.52
2022-08-17T10:02:01.931Z,28.45
2022-08-17T10:05:05.276Z,28.05
2022-08-17T10:08:32.110Z,28.17
2022-08-17T10:12:07.707Z,29.08
2022-08-17T10:15:18.734Z,29.21
2022-08-17T10:19:02.487Z,29.18
2022-08-17T10:22:34.470Z,27.99
2022-08-17T10:26:12.886Z,27.60
2022-08-17T10:29:09.732Z,27.88
2022-08-17T10:32:11.612Z,28.79
2022-08-17T10:35:25.678Z,29.28
2022-08-17T10:38:49.608Z,28.80
2022-08-17T10:41:53.137Z,29.48
2022-08-17T10:45:07.293Z,29.54
2022-08-17T10:48:07.390Z,29.64
2022-08-17T10:51:37.815Z,30.05
2022-08-17T10:54:47.286Z,29.65
2022-08-17T10:57:50.220Z,28.75
2022-08-17T11:00:58.458Z,28.74
2022-08-17T11:03:59.491Z,28.75
2022-08-17T11:07:48.133Z,29.10
2022-08-17T11:11:15.083Z,30.09
2022-08-17T11:14:36.098Z,29.85
2022-08-17T11:18:25.224Z,29.61
2022-08-17T11:22:02.373Z,29.25
2022-08-17T11:25:22.628Z,28.73
2022-08-17T11:28:34.463Z,28.90
2022-08-17T11:31:41.116Z,29.15
2022-08-17T11:34:41.767Z,28.48
2022-08-17T11:38:10.844Z,28.59
2022-08-17T11:41:31.418Z,28.25
2022-08-17T11:44:58.026Z,28.29
2022-08-17T11:48:28.265Z,28.04
2022-08-17T11:52:11.158Z,28.51
2022-08-17T11:55:39.415Z,28.74
2022-08-17T11:58:42.605Z,28.99
2022-08-17T12:01:55.749Z,28.48
2022-08-17T12:05:14.363Z,28.41
2022-08-17T12:08:21.438Z,28.58
2022-08-17T12:12:01.542Z,29.34
2022-08-17T12:15:18.745Z,30.05
2022-08-17T12:18:25.749Z,30.25
2022-08-17T12:22:00.287Z,30.06
2022-08-17T12:25:10.812Z,30.48
2022-08-17T12:28:29.724Z,30.36
2022-08-17T12:31:43.304Z,30.54
2022-08-17T12:34:42.890Z,29.82
2022-08-17T12:37:47.654Z,29.91
2022-08-17T12:40:58.121Z,29.82
2022-08-17T12:44:15.822Z,30.12
2022-08-17T12:47:22.674Z,30.92
2022-08-17T12:50:28.807Z,30.74
2022-08-17T12:53:31.989Z,31.01
2022-08-17T12:56:29.907Z,30.48
2022-08-17T12:59:30.399Z,29.72
2022-08-17T13:02:43.394Z,30.79
2022-08-17T13:05:57.554Z,29.75
2022-08-17T13:08:54.426Z,30.01
2022-08-17T13:11:58.512Z,29.33
2022-08-17T13:14:57.376Z,29.25
2022-08-17T13:18:25.299Z,28.72
2022-08-17T13:21:30.493Z,29.13
2022-08-17T13:24:38.150Z,28.68
2022-08-17T13:27:35.998Z,28.79
2022-08-17T13:30:33.539Z,28.47
2022-08-17T13:33:44.827Z,28.69
2022-08-17T13:36:43.790Z,28.85
2022-08-17T13:39:42.827Z,28.52
2022-08-17T13:42:51.741Z,29.01
2022-08-17T13:45:52.503Z,28.93
2022-08-17T13:49:11.731Z,29.32
2022-08-17T13:52:34.152Z,28.91
2022-08-17T13:55:32.003Z,29.02
2022-08-17T13:58:36.041Z,28.84
2022-08-17T14:01:45.873Z,29.06
2022-08-17T14:04:48.077Z,28.44
2022-08-17T14:07:45.029Z,28.68
2022-08-17T14:10:42.804Z,28.65
2022-08-17T14:13:39.628Z,28.74
2022-08-17T14:16:41.723Z,28.48
2022-08-17T14:19:39.605Z,28.68
2022-08-17T14:22:41.123Z,28.59
2022-08-17T14:25:37.956Z,28.63
2022-08-17T14:28:36.523Z,28.94
2022-08-17T14:31:37.563Z,28.47
2022-08-17T14:34:34.569Z,28.53
2022-08-17T14:37:32.090Z,27.88
2022-08-17T14:40:29.285Z,28.08
2022-08-17T14:43:26.540Z,28.22
2022-08-17T14:46:45.609Z,28.18
2022-08-17T14:49:42.852Z,28.11
2022-08-17T14:52:41.727Z,28.09
2022-08-17T14:55:40.680Z,28.04
2022-08-17T14:58:38.511Z,27.96
2022-08-17T15:01:35.490Z,28.15
2022-08-17T15:04:32.347Z,27.92
2022-08-17T15:07:30.270Z,27.99
2022-08-17T15:10:29.307Z,27.76
2022-08-17T15:13:27.510Z,27.77
2022-08-17T15:16:24.392Z,27.63
2022-08-17T15:19:21.296Z,27.58
2022-08-17T15:22:28.140Z,27.41
2022-08-17T15:25:31.640Z,27.16
2022-08-17T15:28:28.487Z,27.06
2022-08-17T15:31:31.799Z,26.83
2022-08-17T15:34:29.996Z,26.59
2022-08-17T15:37:29.484Z,26.54
2022-08-17T15:40:26.845Z,26.47
2022-08-17T15:43:28.344Z,26.39
2022-08-17T15:46:26.743Z,26.39
2022-08-17T15:49:23.567Z,26.42
2022-08-17T15:52:27.301Z,26.28
2022-08-17T15:55:26.190Z,26.23
2022-08-17T15:58:32.246Z,25.94
2022-08-17T16:03:01.812Z,25.84
2022-08-17T16:04:49.115Z,25.64
2022-08-17T16:07:50.081Z,25.49
2022-08-17T16:10:48.539Z,25.39
2022-08-17T16:13:47.399Z,25.38
2022-08-17T16:16:52.727Z,25.39
2022-08-17T16:19:51.557Z,25.46
2022-08-17T16:22:50.552Z,25.33
2022-08-17T16:25:52.721Z,25.20
2022-08-17T16:28:52.153Z,25.06
2022-08-17T16:31:49.825Z,24.99
2022-08-17T16:34:46.703Z,24.87
2022-08-17T16:37:45.666Z,24.73
2022-08-17T16:40:42.688Z,24.61
2022-08-17T16:43:39.553Z,24.77
2022-08-17T16:46:38.066Z,24.83
2022-08-17T16:49:37.795Z,25.19
2022-08-17T16:52:35.830Z,25.21
2022-08-17T16:55:35.482Z,25.34
2022-08-17T16:58:32.341Z,25.25
2022-08-17T17:01:30.417Z,25.04
2022-08-17T17:04:27.719Z,25.11
2022-08-17T17:07:44.134Z,25.12
2022-08-17T17:10:55.852Z,24.94
2022-08-17T17:13:59.557Z,24.94
2022-08-17T17:17:19.166Z,24.73
2022-08-17T17:21:00.393Z,24.79
2022-08-17T17:24:04.661Z,24.59
2022-08-17T17:27:38.093Z,24.45
2022-08-17T17:31:02.163Z,24.23
2022-08-17T17:34:04.632Z,24.09
2022-08-17T17:37:13.630Z,24.36
2022-08-17T17:40:40.258Z,24.20
2022-08-17T17:43:40.316Z,23.88
2022-08-17T17:46:41.966Z,23.99
2022-08-17T17:49:44.561Z,23.92
2022-08-17T17:52:50.241Z,23.62
2022-08-17T17:56:33.077Z,23.66
2022-08-17T18:00:45.831Z,23.62
2022-08-17T18:04:20.234Z,23.34
2022-08-17T18:07:40.921Z,23.22
2022-08-17T18:11:24.371Z,23.06
2022-08-17T18:14:56.308Z,23.10
2022-08-17T18:18:05.483Z,22.67
2022-08-17T18:21:27.512Z,22.76
2022-08-17T18:24:40.455Z,22.73
2022-08-17T18:27:49.423Z,22.59
2022-08-17T18:31:14.802Z,22.58
2022-08-17T18:37:52.134Z,22.54
2022-08-17T18:41:18.493Z,22.39
2022-08-17T18:44:45.087Z,22.52
2022-08-17T18:47:56.174Z,22.29
2022-08-17T18:50:58.217Z,22.21
2022-08-17T18:54:21.573Z,21.89
2022-08-17T18:57:38.079Z,21.60
2022-08-17T19:00:41.401Z,21.75
2022-08-17T19:03:43.188Z,21.65
2022-08-17T19:06:40.424Z,21.60
2022-08-17T19:09:47.127Z,21.55
2022-08-17T19:13:12.637Z,21.61
2022-08-17T19:16:57.775Z,21.46
2022-08-17T19:20:01.143Z,21.41
2022-08-17T19:23:23.789Z,21.33
2022-08-17T19:26:55.345Z,21.11
2022-08-17T19:29:56.507Z,21.09
2022-08-17T19:32:54.441Z,21.01
2022-08-17T19:36:21.455Z,21.21
2022-08-17T19:39:59.301Z,20.96
2022-08-17T19:43:11.941Z,20.80
2022-08-17T19:46:26.018Z,20.68
2022-08-17T19:49:46.720Z,20.70
2022-08-17T19:53:08.304Z,20.52
2022-08-17T19:56:29.429Z,20.54
2022-08-17T19:59:53.843Z,20.53
2022-08-17T20:03:16.118Z,20.47
2022-08-17T20:06:14.406Z,20.59
2022-08-17T20:09:40.011Z,20.60
2022-08-17T20:12:43.951Z,20.69
2022-08-17T20:15:43.182Z,20.54
2022-08-17T20:19:00.643Z,20.43
2022-08-17T20:22:27.476Z,20.27
2022-08-17T20:25:56.731Z,20.48
2022-08-17T20:29:15.307Z,19.99
2022-08-17T20:32:26.598Z,19.96
2022-08-17T20:35:30.332Z,20.47
2022-08-17T20:38:42.629Z,19.87
2022-08-17T20:42:07.335Z,19.88
2022-08-17T20:45:25.903Z,19.88
2022-08-17T20:48:38.649Z,20.08
2022-08-17T20:52:08.822Z,20.00
2022-08-17T20:55:06.478Z,19.69
2022-08-17T20:58:15.305Z,19.90
2022-08-17T21:01:20.133Z,19.68
2022-08-17T21:04:52.965Z,19.89
2022-08-17T21:07:58.229Z,20.08
2022-08-17T21:10:57.479Z,19.61
2022-08-17T21:14:40.823Z,19.44
2022-08-17T21:17:46.982Z,19.56
2022-08-17T21:21:31.560Z,19.44
2022-08-17T21:24:40.239Z,19.62
2022-08-17T21:28:15.620Z,19.29
2022-08-17T21:31:30.606Z,19.28
2022-08-17T21:34:43.082Z,19.17
2022-08-17T21:37:49.867Z,19.19
2022-08-17T21:40:53.060Z,19.26
2022-08-17T21:43:52.611Z,18.94
2022-08-17T21:46:53.287Z,19.00
2022-08-17T21:49:53.920Z,18.92
2022-08-17T21:52:56.072Z,19.03
2022-08-17T21:55:53.430Z,18.86
2022-08-17T21:59:03.520Z,18.83
2022-08-17T22:02:16.778Z,18.69
2022-08-17T22:05:15.222Z,18.79
2022-08-17T22:08:22.294Z,18.89
2022-08-17T22:11:19.141Z,18.85
2022-08-17T22:14:52.265Z,18.80
2022-08-17T22:17:50.852Z,18.66
2022-08-17T22:20:57.723Z,18.75
2022-08-17T22:24:06.446Z,18.80
2022-08-17T22:27:11.552Z,18.56
2022-08-17T22:30:42.717Z,18.42
2022-08-17T22:34:00.204Z,18.51
2022-08-17T22:37:28.085Z,18.60
2022-08-17T22:40:30.441Z,18.54
2022-08-17T22:43:28.707Z,18.47
2022-08-17T22:46:26.208Z,18.40
2022-08-17T22:49:38.470Z,18.36
2022-08-17T22:53:37.794Z,18.28
2022-08-17T22:56:53.692Z,18.30
2022-08-17T22:59:54.752Z,18.19
2022-08-17T23:03:26.321Z,18.21
2022-08-17T23:06:24.252Z,18.06
2022-08-17T23:09:21.714Z,18.14
2022-08-17T23:12:26.491Z,18.06
2022-08-17T23:15:27.101Z,18.13
2022-08-17T23:18:25.240Z,18.19
2022-08-17T23:21:27.085Z,18.31
2022-08-17T23:24:31.054Z,18.03
2022-08-17T23:27:29.299Z,18.27
2022-08-17T23:30:28.407Z,18.13
2022-08-17T23:33:31.373Z,18.07
2022-08-17T23:36:28.418Z,18.10
2022-08-17T23:39:28.160Z,18.08
2022-08-17T23:42:25.333Z,18.05
2022-08-17T23:45:22.177Z,17.83
2022-08-17T23:48:35.073Z,17.66
2022-08-17T23:51:39.653Z,17.68
2022-08-17T23:54:44.350Z,17.61
2022-08-17T23:57:41.483Z,17.62
